sensor_id;sensor_type;location;lat;lon;timestamp;P1;durP1;ratioP1;P2;durP2;ratioP2
9900;SDS011;4989;48.772;9.154;2022-11-20T00:03:30;3.33;;;2.43;;
9900;SDS011;4989;48.772;9.154;2022-11-20T00:08:33;3.13;;;2.60;;
9900;SDS011;4989;48.772;9.154;2022-11-20T00:13:35;2.57;;;2.37;;
9900;SDS011;4989;48.772;9.154;2022-11-20T00:18:38;2.70;;;2.50;;
9900;SDS011;4989;48.772;9.154;2022-11-20T00:23:41;3.57;;;2.60;;
9900;SDS011;4989;48.772;9.154;2022-11-20T00:28:48;2.80;;;2.50;;
9900;SDS011;4989;48.772;9.154;2022-11-20T00:33:54;4.10;;;2.83;;
9900;SDS011;4989;48.772;9.154;2022-11-20T00:38:57;2.60;;;2.40;;
9900;SDS011;4989;48.772;9.154;2022-11-20T00:44:00;2.57;;;2.30;;
9900;SDS011;4989;48.772;9.154;2022-11-20T00:49:02;2.17;;;1.97;;
9900;SDS011;4989;48.772;9.154;2022-11-20T00:54:05;2.43;;;2.23;;
9900;SDS011;4989;48.772;9.154;2022-11-20T00:59:08;4.83;;;2.03;;
9900;SDS011;4989;48.772;9.154;2022-11-20T01:04:11;2.10;;;1.73;;
9900;SDS011;4989;48.772;9.154;2022-11-20T01:09:14;2.70;;;1.90;;
9900;SDS011;4989;48.772;9.154;2022-11-20T01:14:17;2.20;;;1.90;;
9900;SDS011;4989;48.772;9.154;2022-11-20T01:19:21;1.80;;;1.70;;
9900;SDS011;4989;48.772;9.154;2022-11-20T01:24:27;3.43;;;1.83;;
9900;SDS011;4989;48.772;9.154;2022-11-20T01:29:29;2.60;;;1.80;;
9900;SDS011;4989;48.772;9.154;2022-11-20T01:34:32;1.60;;;1.50;;
9900;SDS011;4989;48.772;9.154;2022-11-20T01:39:34;1.93;;;1.80;;
9900;SDS011;4989;48.772;9.154;2022-11-20T01:50:01;2.33;;;1.77;;
9900;SDS011;4989;48.772;9.154;2022-11-20T01:55:17;3.30;;;1.97;;
9900;SDS011;4989;48.772;9.154;2022-11-20T02:00:27;2.10;;;1.90;;
9900;SDS011;4989;48.772;9.154;2022-11-20T02:05:34;1.63;;;1.53;;
9900;SDS011;4989;48.772;9.154;2022-11-20T02:11:00;3.33;;;1.70;;
9900;SDS011;4989;48.772;9.154;2022-11-20T02:16:03;1.90;;;1.80;;
9900;SDS011;4989;48.772;9.154;2022-11-20T02:26:25;2.33;;;1.57;;
9900;SDS011;4989;48.772;9.154;2022-11-20T02:31:35;2.53;;;1.80;;
9900;SDS011;4989;48.772;9.154;2022-11-20T02:36:39;1.70;;;1.60;;
9900;SDS011;4989;48.772;9.154;2022-11-20T02:41:44;3.03;;;1.93;;
9900;SDS011;4989;48.772;9.154;2022-11-20T02:46:46;1.63;;;1.53;;
9900;SDS011;4989;48.772;9.154;2022-11-20T02:51:49;2.53;;;1.60;;
9900;SDS011;4989;48.772;9.154;2022-11-20T02:56:53;2.37;;;1.60;;
9900;SDS011;4989;48.772;9.154;2022-11-20T03:01:56;2.00;;;1.90;;
9900;SDS011;4989;48.772;9.154;2022-11-20T03:06:58;1.80;;;1.70;;
9900;SDS011;4989;48.772;9.154;2022-11-20T03:12:02;2.33;;;1.50;;
9900;SDS011;4989;48.772;9.154;2022-11-20T03:17:05;1.67;;;1.57;;
9900;SDS011;4989;48.772;9.154;2022-11-20T03:22:07;1.87;;;1.73;;
9900;SDS011;4989;48.772;9.154;2022-11-20T03:27:13;3.57;;;1.90;;
9900;SDS011;4989;48.772;9.154;2022-11-20T03:32:16;3.80;;;1.87;;
9900;SDS011;4989;48.772;9.154;2022-11-20T03:37:19;2.53;;;2.00;;
9900;SDS011;4989;48.772;9.154;2022-11-20T03:42:24;2.30;;;1.90;;
9900;SDS011;4989;48.772;9.154;2022-11-20T03:47:45;3.37;;;2.00;;
9900;SDS011;4989;48.772;9.154;2022-11-20T03:52:51;2.80;;;2.27;;
9900;SDS011;4989;48.772;9.154;2022-11-20T03:57:53;2.70;;;2.10;;
9900;SDS011;4989;48.772;9.154;2022-11-20T04:03:00;3.17;;;2.33;;
9900;SDS011;4989;48.772;9.154;2022-11-20T04:08:02;3.00;;;2.30;;
9900;SDS011;4989;48.772;9.154;2022-11-20T04:13:05;2.47;;;2.27;;
9900;SDS011;4989;48.772;9.154;2022-11-20T04:18:10;2.60;;;2.27;;
9900;SDS011;4989;48.772;9.154;2022-11-20T04:23:12;2.60;;;2.20;;
9900;SDS011;4989;48.772;9.154;2022-11-20T04:28:15;2.37;;;2.10;;
9900;SDS011;4989;48.772;9.154;2022-11-20T04:33:17;3.83;;;2.30;;
9900;SDS011;4989;48.772;9.154;2022-11-20T04:38:20;3.23;;;2.50;;
9900;SDS011;4989;48.772;9.154;2022-11-20T04:43:25;2.63;;;2.00;;
9900;SDS011;4989;48.772;9.154;2022-11-20T04:48:29;2.70;;;2.10;;
9900;SDS011;4989;48.772;9.154;2022-11-20T04:53:32;3.30;;;2.03;;
9900;SDS011;4989;48.772;9.154;2022-11-20T04:58:34;2.70;;;2.10;;
9900;SDS011;4989;48.772;9.154;2022-11-20T05:03:37;4.97;;;2.40;;
9900;SDS011;4989;48.772;9.154;2022-11-20T05:08:43;2.20;;;2.00;;
9900;SDS011;4989;48.772;9.154;2022-11-20T05:13:46;2.30;;;2.10;;
9900;SDS011;4989;48.772;9.154;2022-11-20T05:18:52;2.40;;;2.00;;
9900;SDS011;4989;48.772;9.154;2022-11-20T05:23:56;1.80;;;1.70;;
9900;SDS011;4989;48.772;9.154;2022-11-20T05:28:58;3.43;;;2.00;;
9900;SDS011;4989;48.772;9.154;2022-11-20T05:34:02;3.97;;;1.87;;
9900;SDS011;4989;48.772;9.154;2022-11-20T05:39:04;2.47;;;2.27;;
9900;SDS011;4989;48.772;9.154;2022-11-20T05:44:09;2.03;;;1.90;;
9900;SDS011;4989;48.772;9.154;2022-11-20T05:49:13;1.83;;;1.73;;
9900;SDS011;4989;48.772;9.154;2022-11-20T05:54:15;1.90;;;1.80;;
9900;SDS011;4989;48.772;9.154;2022-11-20T05:59:18;1.93;;;1.83;;
9900;SDS011;4989;48.772;9.154;2022-11-20T06:04:21;4.43;;;1.73;;
9900;SDS011;4989;48.772;9.154;2022-11-20T06:09:23;2.30;;;2.10;;
9900;SDS011;4989;48.772;9.154;2022-11-20T06:14:31;2.17;;;1.80;;
9900;SDS011;4989;48.772;9.154;2022-11-20T06:19:34;2.77;;;1.73;;
9900;SDS011;4989;48.772;9.154;2022-11-20T06:24:36;4.70;;;1.93;;
9900;SDS011;4989;48.772;9.154;2022-11-20T06:29:39;1.90;;;1.80;;
9900;SDS011;4989;48.772;9.154;2022-11-20T06:34:41;2.23;;;1.60;;
9900;SDS011;4989;48.772;9.154;2022-11-20T06:39:44;1.80;;;1.60;;
9900;SDS011;4989;48.772;9.154;2022-11-20T06:44:47;1.60;;;1.50;;
9900;SDS011;4989;48.772;9.154;2022-11-20T06:49:49;1.40;;;1.30;;
9900;SDS011;4989;48.772;9.154;2022-11-20T06:54:54;1.83;;;1.50;;
9900;SDS011;4989;48.772;9.154;2022-11-20T06:59:57;1.40;;;1.30;;
9900;SDS011;4989;48.772;9.154;2022-11-20T07:04:59;1.67;;;1.10;;
9900;SDS011;4989;48.772;9.154;2022-11-20T07:10:01;1.43;;;1.33;;
9900;SDS011;4989;48.772;9.154;2022-11-20T07:15:04;1.73;;;1.60;;
9900;SDS011;4989;48.772;9.154;2022-11-20T07:20:07;1.47;;;1.37;;
9900;SDS011;4989;48.772;9.154;2022-11-20T07:25:10;3.43;;;1.87;;
9900;SDS011;4989;48.772;9.154;2022-11-20T07:30:13;2.17;;;1.60;;
9900;SDS011;4989;48.772;9.154;2022-11-20T07:35:19;1.37;;;1.27;;
9900;SDS011;4989;48.772;9.154;2022-11-20T07:40:22;1.77;;;1.43;;
9900;SDS011;4989;48.772;9.154;2022-11-20T07:45:24;3.07;;;1.67;;
9900;SDS011;4989;48.772;9.154;2022-11-20T07:50:28;2.47;;;1.80;;
9900;SDS011;4989;48.772;9.154;2022-11-20T07:55:31;1.53;;;1.27;;
9900;SDS011;4989;48.772;9.154;2022-11-20T08:00:34;1.93;;;1.60;;
9900;SDS011;4989;48.772;9.154;2022-11-20T08:05:36;3.03;;;1.50;;
9900;SDS011;4989;48.772;9.154;2022-11-20T08:10:42;1.50;;;1.40;;
9900;SDS011;4989;48.772;9.154;2022-11-20T08:15:47;2.80;;;1.30;;
9900;SDS011;4989;48.772;9.154;2022-11-20T08:20:52;1.70;;;1.43;;
9900;SDS011;4989;48.772;9.154;2022-11-20T08:25:57;1.40;;;1.30;;
9900;SDS011;4989;48.772;9.154;2022-11-20T08:31:00;1.67;;;1.57;;
9900;SDS011;4989;48.772;9.154;2022-11-20T08:36:06;2.93;;;1.20;;
9900;SDS011;4989;48.772;9.154;2022-11-20T08:41:08;1.13;;;1.07;;
9900;SDS011;4989;48.772;9.154;2022-11-20T08:51:45;1.10;;;1.00;;
9900;SDS011;4989;48.772;9.154;2022-11-20T08:56:50;1.00;;;1.00;;
9900;SDS011;4989;48.772;9.154;2022-11-20T09:01:53;2.20;;;1.10;;
9900;SDS011;4989;48.772;9.154;2022-11-20T09:06:56;1.60;;;1.10;;
9900;SDS011;4989;48.772;9.154;2022-11-20T09:12:01;1.00;;;1.00;;
9900;SDS011;4989;48.772;9.154;2022-11-20T09:17:09;1.47;;;1.13;;
9900;SDS011;4989;48.772;9.154;2022-11-20T09:22:17;2.00;;;1.40;;
9900;SDS011;4989;48.772;9.154;2022-11-20T09:27:20;4.40;;;1.90;;
9900;SDS011;4989;48.772;9.154;2022-11-20T09:32:22;1.17;;;1.10;;
9900;SDS011;4989;48.772;9.154;2022-11-20T09:37:25;0.83;;;0.83;;
9900;SDS011;4989;48.772;9.154;2022-11-20T10:09:25;0.43;;;0.43;;
9900;SDS011;4989;48.772;9.154;2022-11-20T10:25:18;0.43;;;0.43;;
9900;SDS011;4989;48.772;9.154;2022-11-20T10:30:22;0.87;;;0.73;;
9900;SDS011;4989;48.772;9.154;2022-11-20T10:35:40;1.33;;;0.87;;
9900;SDS011;4989;48.772;9.154;2022-11-20T10:41:00;1.10;;;1.00;;
9900;SDS011;4989;48.772;9.154;2022-11-20T10:46:23;1.70;;;1.13;;
9900;SDS011;4989;48.772;9.154;2022-11-20T10:56:48;1.10;;;1.03;;
9900;SDS011;4989;48.772;9.154;2022-11-20T11:01:53;0.80;;;0.80;;
9900;SDS011;4989;48.772;9.154;2022-11-20T11:07:04;1.50;;;0.83;;
9900;SDS011;4989;48.772;9.154;2022-11-20T11:12:22;1.20;;;1.10;;
9900;SDS011;4989;48.772;9.154;2022-11-20T11:17:28;1.00;;;0.80;;
9900;SDS011;4989;48.772;9.154;2022-11-20T11:22:33;1.00;;;0.90;;
9900;SDS011;4989;48.772;9.154;2022-11-20T11:27:47;1.07;;;1.00;;
9900;SDS011;4989;48.772;9.154;2022-11-20T11:32:50;1.37;;;1.20;;
9900;SDS011;4989;48.772;9.154;2022-11-20T11:38:04;0.80;;;0.80;;
9900;SDS011;4989;48.772;9.154;2022-11-20T11:43:22;1.20;;;1.10;;
9900;SDS011;4989;48.772;9.154;2022-11-20T11:54:03;1.13;;;1.03;;
9900;SDS011;4989;48.772;9.154;2022-11-20T11:59:24;1.40;;;1.30;;
9900;SDS011;4989;48.772;9.154;2022-11-20T12:09:47;1.30;;;1.20;;
9900;SDS011;4989;48.772;9.154;2022-11-20T12:14:53;1.87;;;1.30;;
9900;SDS011;4989;48.772;9.154;2022-11-20T12:20:01;1.40;;;0.97;;
9900;SDS011;4989;48.772;9.154;2022-11-20T12:25:12;1.27;;;1.17;;
9900;SDS011;4989;48.772;9.154;2022-11-20T12:37:36;1.37;;;0.83;;
9900;SDS011;4989;48.772;9.154;2022-11-20T12:53:56;2.50;;;1.30;;
9900;SDS011;4989;48.772;9.154;2022-11-20T13:09:41;0.83;;;0.70;;
9900;SDS011;4989;48.772;9.154;2022-11-20T13:14:55;0.50;;;0.50;;
9900;SDS011;4989;48.772;9.154;2022-11-20T13:20:18;1.43;;;0.67;;
9900;SDS011;4989;48.772;9.154;2022-11-20T13:25:28;1.87;;;0.90;;
9900;SDS011;4989;48.772;9.154;2022-11-20T13:30:33;0.60;;;0.60;;
9900;SDS011;4989;48.772;9.154;2022-11-20T13:35:41;1.27;;;0.80;;
9900;SDS011;4989;48.772;9.154;2022-11-20T13:40:51;0.60;;;0.60;;
9900;SDS011;4989;48.772;9.154;2022-11-20T13:46:35;1.37;;;1.07;;
9900;SDS011;4989;48.772;9.154;2022-11-20T13:51:46;2.53;;;0.83;;
9900;SDS011;4989;48.772;9.154;2022-11-20T14:02:00;0.50;;;0.50;;
9900;SDS011;4989;48.772;9.154;2022-11-20T14:07:15;0.70;;;0.70;;
9900;SDS011;4989;48.772;9.154;2022-11-20T14:12:20;0.70;;;0.70;;
9900;SDS011;4989;48.772;9.154;2022-11-20T14:22:36;0.80;;;0.80;;
9900;SDS011;4989;48.772;9.154;2022-11-20T14:27:47;0.87;;;0.87;;
9900;SDS011;4989;48.772;9.154;2022-11-20T14:32:54;0.97;;;0.97;;
9900;SDS011;4989;48.772;9.154;2022-11-20T14:38:02;0.67;;;0.67;;
9900;SDS011;4989;48.772;9.154;2022-11-20T14:48:31;2.27;;;1.00;;
9900;SDS011;4989;48.772;9.154;2022-11-20T14:53:42;0.93;;;0.93;;
9900;SDS011;4989;48.772;9.154;2022-11-20T14:58:45;1.43;;;0.90;;
9900;SDS011;4989;48.772;9.154;2022-11-20T15:04:00;1.77;;;1.20;;
9900;SDS011;4989;48.772;9.154;2022-11-20T15:09:14;0.80;;;0.80;;
9900;SDS011;4989;48.772;9.154;2022-11-20T15:14:17;1.53;;;1.10;;
9900;SDS011;4989;48.772;9.154;2022-11-20T15:19:20;1.50;;;1.10;;
9900;SDS011;4989;48.772;9.154;2022-11-20T15:24:24;1.57;;;1.20;;
9900;SDS011;4989;48.772;9.154;2022-11-20T15:29:30;1.43;;;1.30;;
9900;SDS011;4989;48.772;9.154;2022-11-20T15:34:33;1.57;;;1.30;;
9900;SDS011;4989;48.772;9.154;2022-11-20T15:39:35;1.67;;;1.20;;
9900;SDS011;4989;48.772;9.154;2022-11-20T15:44:38;1.57;;;1.30;;
9900;SDS011;4989;48.772;9.154;2022-11-20T15:49:40;1.00;;;1.00;;
9900;SDS011;4989;48.772;9.154;2022-11-20T15:54:43;1.13;;;1.10;;
9900;SDS011;4989;48.772;9.154;2022-11-20T15:59:46;1.50;;;1.40;;
9900;SDS011;4989;48.772;9.154;2022-11-20T16:04:48;1.70;;;1.50;;
9900;SDS011;4989;48.772;9.154;2022-11-20T16:09:51;1.93;;;1.67;;
9900;SDS011;4989;48.772;9.154;2022-11-20T16:14:53;2.30;;;1.30;;
9900;SDS011;4989;48.772;9.154;2022-11-20T16:20:15;1.40;;;1.23;;
9900;SDS011;4989;48.772;9.154;2022-11-20T16:25:21;2.10;;;1.47;;
9900;SDS011;4989;48.772;9.154;2022-11-20T16:30:23;1.80;;;1.57;;
9900;SDS011;4989;48.772;9.154;2022-11-20T16:35:28;1.50;;;1.30;;
9900;SDS011;4989;48.772;9.154;2022-11-20T16:40:32;1.53;;;1.40;;
9900;SDS011;4989;48.772;9.154;2022-11-20T16:45:44;1.57;;;1.47;;
9900;SDS011;4989;48.772;9.154;2022-11-20T16:50:51;1.60;;;1.50;;
9900;SDS011;4989;48.772;9.154;2022-11-20T16:55:54;2.30;;;1.80;;
9900;SDS011;4989;48.772;9.154;2022-11-20T17:00:56;2.50;;;1.70;;
9900;SDS011;4989;48.772;9.154;2022-11-20T17:06:27;1.60;;;1.50;;
9900;SDS011;4989;48.772;9.154;2022-11-20T17:11:29;1.87;;;1.60;;
9900;SDS011;4989;48.772;9.154;2022-11-20T17:16:34;1.43;;;1.33;;
9900;SDS011;4989;48.772;9.154;2022-11-20T17:21:37;2.60;;;1.73;;
9900;SDS011;4989;48.772;9.154;2022-11-20T17:26:40;1.20;;;1.20;;
9900;SDS011;4989;48.772;9.154;2022-11-20T17:31:44;2.73;;;1.40;;
9900;SDS011;4989;48.772;9.154;2022-11-20T17:36:48;1.90;;;1.70;;
9900;SDS011;4989;48.772;9.154;2022-11-20T17:41:51;1.57;;;1.47;;
9900;SDS011;4989;48.772;9.154;2022-11-20T17:47:12;2.10;;;1.67;;
9900;SDS011;4989;48.772;9.154;2022-11-20T17:52:15;2.20;;;1.47;;
9900;SDS011;4989;48.772;9.154;2022-11-20T17:57:18;1.60;;;1.50;;
9900;SDS011;4989;48.772;9.154;2022-11-20T18:02:39;1.70;;;1.60;;
9900;SDS011;4989;48.772;9.154;2022-11-20T18:07:43;2.87;;;2.60;;
9900;SDS011;4989;48.772;9.154;2022-11-20T18:12:46;1.70;;;1.27;;
9900;SDS011;4989;48.772;9.154;2022-11-20T18:17:48;2.83;;;1.73;;
9900;SDS011;4989;48.772;9.154;2022-11-20T18:22:51;2.77;;;1.67;;
9900;SDS011;4989;48.772;9.154;2022-11-20T18:27:53;1.40;;;1.30;;
9900;SDS011;4989;48.772;9.154;2022-11-20T18:32:56;1.50;;;1.40;;
9900;SDS011;4989;48.772;9.154;2022-11-20T18:37:59;1.60;;;1.43;;
9900;SDS011;4989;48.772;9.154;2022-11-20T18:43:01;1.90;;;1.40;;
9900;SDS011;4989;48.772;9.154;2022-11-20T18:48:22;2.30;;;1.50;;
9900;SDS011;4989;48.772;9.154;2022-11-20T18:53:25;2.00;;;1.90;;
9900;SDS011;4989;48.772;9.154;2022-11-20T18:58:30;2.87;;;1.60;;
9900;SDS011;4989;48.772;9.154;2022-11-20T19:03:33;1.93;;;1.50;;
9900;SDS011;4989;48.772;9.154;2022-11-20T19:08:35;1.73;;;1.40;;
9900;SDS011;4989;48.772;9.154;2022-11-20T19:13:41;1.20;;;1.20;;
9900;SDS011;4989;48.772;9.154;2022-11-20T19:18:44;1.30;;;1.20;;
9900;SDS011;4989;48.772;9.154;2022-11-20T19:23:49;1.77;;;1.27;;
9900;SDS011;4989;48.772;9.154;2022-11-20T19:28:54;0.90;;;0.90;;
9900;SDS011;4989;48.772;9.154;2022-11-20T19:33:58;1.57;;;0.87;;
9900;SDS011;4989;48.772;9.154;2022-11-20T19:39:03;0.97;;;0.90;;
9900;SDS011;4989;48.772;9.154;2022-11-20T19:44:11;1.07;;;0.90;;
9900;SDS011;4989;48.772;9.154;2022-11-20T19:49:15;0.73;;;0.73;;
9900;SDS011;4989;48.772;9.154;2022-11-20T19:54:18;1.03;;;0.40;;
9900;SDS011;4989;48.772;9.154;2022-11-20T19:59:21;0.47;;;0.43;;
9900;SDS011;4989;48.772;9.154;2022-11-20T20:04:23;0.30;;;0.30;;
9900;SDS011;4989;48.772;9.154;2022-11-20T20:09:26;0.30;;;0.30;;
9900;SDS011;4989;48.772;9.154;2022-11-20T20:14:30;0.30;;;0.30;;
9900;SDS011;4989;48.772;9.154;2022-11-20T20:19:32;0.60;;;0.60;;
9900;SDS011;4989;48.772;9.154;2022-11-20T20:24:36;0.40;;;0.40;;
9900;SDS011;4989;48.772;9.154;2022-11-20T20:29:38;0.30;;;0.30;;
9900;SDS011;4989;48.772;9.154;2022-11-20T20:34:41;0.40;;;0.40;;
9900;SDS011;4989;48.772;9.154;2022-11-20T20:39:43;1.53;;;0.50;;
9900;SDS011;4989;48.772;9.154;2022-11-20T20:44:46;0.37;;;0.37;;
9900;SDS011;4989;48.772;9.154;2022-11-20T20:50:08;0.40;;;0.40;;
9900;SDS011;4989;48.772;9.154;2022-11-20T20:55:12;0.73;;;0.33;;
9900;SDS011;4989;48.772;9.154;2022-11-20T21:00:14;0.23;;;0.23;;
9900;SDS011;4989;48.772;9.154;2022-11-20T21:05:17;0.27;;;0.27;;
9900;SDS011;4989;48.772;9.154;2022-11-20T21:10:20;0.43;;;0.43;;
9900;SDS011;4989;48.772;9.154;2022-11-20T21:15:24;0.20;;;0.20;;
9900;SDS011;4989;48.772;9.154;2022-11-20T21:20:26;0.30;;;0.30;;
9900;SDS011;4989;48.772;9.154;2022-11-20T21:25:48;0.60;;;0.30;;
9900;SDS011;4989;48.772;9.154;2022-11-20T21:30:51;0.40;;;0.40;;
9900;SDS011;4989;48.772;9.154;2022-11-20T21:35:53;0.50;;;0.50;;
9900;SDS011;4989;48.772;9.154;2022-11-20T21:40:58;0.30;;;0.30;;
9900;SDS011;4989;48.772;9.154;2022-11-20T21:46:06;0.10;;;0.10;;
9900;SDS011;4989;48.772;9.154;2022-11-20T21:51:16;0.50;;;0.50;;
9900;SDS011;4989;48.772;9.154;2022-11-20T21:56:22;0.40;;;0.40;;
9900;SDS011;4989;48.772;9.154;2022-11-20T22:01:26;1.77;;;0.43;;
9900;SDS011;4989;48.772;9.154;2022-11-20T22:06:30;0.40;;;0.40;;
9900;SDS011;4989;48.772;9.154;2022-11-20T22:11:34;2.03;;;0.50;;
9900;SDS011;4989;48.772;9.154;2022-11-20T22:16:36;1.07;;;0.50;;
9900;SDS011;4989;48.772;9.154;2022-11-20T22:21:39;0.40;;;0.40;;
9900;SDS011;4989;48.772;9.154;2022-11-20T22:26:42;0.30;;;0.27;;
9900;SDS011;4989;48.772;9.154;2022-11-20T22:31:45;1.03;;;0.60;;
9900;SDS011;4989;48.772;9.154;2022-11-20T22:36:48;1.13;;;0.60;;
9900;SDS011;4989;48.772;9.154;2022-11-20T22:41:50;1.40;;;0.70;;
9900;SDS011;4989;48.772;9.154;2022-11-20T22:46:53;0.60;;;0.57;;
9900;SDS011;4989;48.772;9.154;2022-11-20T22:51:55;0.83;;;0.70;;
9900;SDS011;4989;48.772;9.154;2022-11-20T22:56:58;0.37;;;0.37;;
9900;SDS011;4989;48.772;9.154;2022-11-20T23:02:00;1.03;;;0.53;;
9900;SDS011;4989;48.772;9.154;2022-11-20T23:07:04;0.77;;;0.50;;
9900;SDS011;4989;48.772;9.154;2022-11-20T23:12:06;0.40;;;0.40;;
9900;SDS011;4989;48.772;9.154;2022-11-20T23:17:09;0.57;;;0.57;;
9900;SDS011;4989;48.772;9.154;2022-11-20T23:22:11;0.60;;;0.60;;
9900;SDS011;4989;48.772;9.154;2022-11-20T23:27:14;0.30;;;0.30;;
9900;SDS011;4989;48.772;9.154;2022-11-20T23:32:20;0.53;;;0.23;;
9900;SDS011;4989;48.772;9.154;2022-11-20T23:37:22;0.40;;;0.40;;
9900;SDS011;4989;48.772;9.154;2022-11-20T23:42:25;0.50;;;0.50;;
9900;SDS011;4989;48.772;9.154;2022-11-20T23:47:27;0.50;;;0.30;;
9900;SDS011;4989;48.772;9.154;2022-11-20T23:52:30;0.63;;;0.40;;
9900;SDS011;4989;48.772;9.154;2022-11-20T23:57:32;0.50;;;0.50;;
